Time;durP1;ratioP1;P1;durP2;ratioP2;P2;SDS_P1;SDS_P2;PMS_P1;PMS_P2;Temp;Humidity;BMP_temperature;BMP_pressure;BME280_temperature;BME280_humidity;BME280_pressure;Samples;Min_cycle;Max_cycle;Signal;HPM_P1;HPM_P2
2022/11/24 00:01:10;;;;;;;1.27;0.73;;;;;;;7.72;100.00;96127.28;5057694;28;20207;-62
2022/11/24 00:03:37;;;;;;;1.47;0.90;;;;;;;7.72;100.00;96132.56;5057783;28;20466;-62
2022/11/24 00:06:04;;;;;;;3.67;1.27;;;;;;;7.75;100.00;96127.03;5057526;28;20289;-62
2022/11/24 00:08:31;;;;;;;3.20;1.20;;;;;;;7.75;100.00;96136.72;5057704;28;20234;-62
2022/11/24 00:11:06;;;;;;;2.30;1.33;;;;;;;7.78;100.00;96132.03;5056680;28;20639;-61
2022/11/24 00:13:33;;;;;;;1.40;0.90;;;;;;;7.81;100.00;96133.53;5057281;28;20293;-62
2022/11/24 00:16:08;;;;;;;3.00;1.73;;;;;;;7.82;100.00;96135.22;5056764;28;20291;-61
2022/11/24 00:18:34;;;;;;;1.47;1.10;;;;;;;7.80;100.00;96145.03;5056082;28;20559;-61
2022/11/24 00:21:01;;;;;;;1.30;1.20;;;;;;;7.84;100.00;96143.78;5057391;28;20213;-62
2022/11/24 00:23:28;;;;;;;1.93;1.00;;;;;;;7.83;100.00;96156.09;5062975;28;20616;-61
2022/11/24 00:25:55;;;;;;;1.90;1.07;;;;;;;7.80;100.00;96156.38;5057033;28;20279;-61
2022/11/24 00:28:25;;;;;;;3.07;1.33;;;;;;;7.80;100.00;96160.81;5057469;28;20300;-61
2022/11/24 00:30:52;;;;;;;2.10;1.30;;;;;;;7.78;100.00;96158.34;5058890;28;20210;-62
2022/11/24 00:33:18;;;;;;;1.67;0.83;;;;;;;7.88;100.00;96168.88;5062370;28;20272;-62
2022/11/24 00:35:45;;;;;;;2.63;1.23;;;;;;;7.82;100.00;96167.63;5064986;28;20230;-62
2022/11/24 00:38:12;;;;;;;3.10;1.57;;;;;;;7.83;100.00;96164.00;5061003;28;20321;-62
2022/11/24 00:40:39;;;;;;;2.53;1.30;;;;;;;7.84;100.00;96173.56;5068599;28;20229;-63
2022/11/24 00:43:06;;;;;;;2.40;1.23;;;;;;;7.88;100.00;96180.22;5061939;28;20234;-63
2022/11/24 00:45:41;;;;;;;2.70;1.20;;;;;;;7.87;100.00;96185.63;5071652;28;20222;-62
2022/11/24 00:48:08;;;;;;;1.97;1.10;;;;;;;7.89;100.00;96183.69;5077269;28;20269;-62
2022/11/24 00:50:34;;;;;;;3.27;1.53;;;;;;;7.87;100.00;96183.81;5081527;28;20230;-62
2022/11/24 00:53:01;;;;;;;2.13;1.50;;;;;;;8.00;100.00;96194.09;5084473;28;20274;-63
2022/11/24 00:55:28;;;;;;;3.03;1.53;;;;;;;7.98;100.00;96194.22;5079385;28;20226;-62
2022/11/24 00:57:54;;;;;;;2.80;1.10;;;;;;;7.97;100.00;96189.91;5069282;28;20227;-63
2022/11/24 01:00:21;;;;;;;2.67;1.43;;;;;;;7.99;100.00;96197.69;5070228;28;20207;-62
2022/11/24 01:02:50;;;;;;;2.37;1.70;;;;;;;7.99;100.00;96210.88;5084946;28;20203;-61
2022/11/24 01:05:16;;;;;;;2.83;1.40;;;;;;;8.04;100.00;96197.28;5065831;28;20230;-63
2022/11/24 01:07:43;;;;;;;3.50;1.60;;;;;;;8.10;100.00;96200.19;5074253;28;20207;-63
2022/11/24 01:10:11;;;;;;;3.73;1.73;;;;;;;8.09;100.00;96193.25;5076456;28;20234;-62
2022/11/24 01:12:40;;;;;;;5.30;1.73;;;;;;;8.05;100.00;96201.56;5080205;28;20607;-62
2022/11/24 01:15:09;;;;;;;2.03;1.50;;;;;;;8.06;100.00;96211.13;5065466;28;20199;-61
2022/11/24 01:17:38;;;;;;;3.00;1.43;;;;;;;8.05;100.00;96222.63;5058075;28;20282;-62
2022/11/24 01:20:10;;;;;;;3.17;1.43;;;;;;;8.09;100.00;96222.22;5057614;28;20207;-63
2022/11/24 01:22:37;;;;;;;4.70;1.73;;;;;;;8.07;100.00;96232.09;5057753;28;20203;-63
2022/11/24 01:25:05;;;;;;;3.37;2.00;;;;;;;8.06;100.00;96235.66;5058209;28;20298;-62
2022/11/24 01:27:33;;;;;;;5.27;2.00;;;;;;;8.05;100.00;96243.69;5057112;28;20605;-65
2022/11/24 01:29:59;;;;;;;3.33;1.40;;;;;;;8.01;100.00;96251.03;5057054;28;20223;-66
2022/11/24 01:32:27;;;;;;;3.73;1.73;;;;;;;7.99;100.00;96251.19;5057335;28;20294;-61
2022/11/24 01:34:55;;;;;;;3.07;1.33;;;;;;;7.96;100.00;96245.38;5057509;28;20245;-62
2022/11/24 01:37:23;;;;;;;5.37;1.80;;;;;;;7.86;100.00;96248.00;5055637;28;20264;-62
2022/11/24 01:39:50;;;;;;;2.63;1.57;;;;;;;7.86;100.00;96255.91;5055858;28;20282;-62
2022/11/24 01:42:17;;;;;;;2.93;1.57;;;;;;;7.86;100.00;96261.16;5060402;28;20651;-61
2022/11/24 01:44:44;;;;;;;3.63;1.77;;;;;;;7.82;100.00;96264.19;5055729;28;20226;-61
2022/11/24 01:47:25;;;;;;;4.70;1.80;;;;;;;7.75;100.00;96271.78;5058593;28;20612;-62
2022/11/24 01:49:53;;;;;;;3.67;1.97;;;;;;;7.75;100.00;96274.44;5057434;28;20209;-62
2022/11/24 01:52:25;;;;;;;5.70;2.00;;;;;;;7.71;100.00;96274.81;5055573;28;20292;-61
2022/11/24 01:54:55;;;;;;;4.70;1.80;;;;;;;7.73;100.00;96270.25;5054403;28;20286;-61
2022/11/24 01:57:25;;;;;;;2.63;1.87;;;;;;;7.76;100.00;96276.06;5054954;28;20317;-61
2022/11/24 01:59:55;;;;;;;5.13;1.80;;;;;;;7.67;100.00;96287.41;5055562;28;20275;-62
2022/11/24 02:02:22;;;;;;;3.23;2.10;;;;;;;7.69;100.00;96284.63;5059838;28;20285;-62
2022/11/24 02:04:50;;;;;;;3.17;1.33;;;;;;;7.67;100.00;96284.78;5066171;28;20298;-60
2022/11/24 02:07:18;;;;;;;5.93;2.10;;;;;;;7.64;100.00;96287.69;5062333;28;20588;-62
2022/11/24 02:09:49;;;;;;;5.20;1.97;;;;;;;7.62;100.00;96289.59;5054796;28;20238;-61
2022/11/24 02:12:16;;;;;;;4.83;2.03;;;;;;;7.59;100.00;96294.31;5058096;28;20291;-62
2022/11/24 02:14:43;;;;;;;3.20;2.03;;;;;;;7.60;100.00;96291.56;5066240;28;20290;-62
2022/11/24 02:17:12;;;;;;;4.03;1.70;;;;;;;7.58;100.00;96293.47;5055290;28;20294;-62
2022/11/24 02:19:45;;;;;;;4.87;2.17;;;;;;;7.58;100.00;96290.03;5054869;28;20675;-63
2022/11/24 02:22:17;;;;;;;4.67;2.03;;;;;;;7.56;100.00;96302.47;5055361;28;20202;-61
2022/11/24 02:24:48;;;;;;;3.93;1.93;;;;;;;7.62;100.00;96302.75;5057280;28;20217;-62
2022/11/24 02:27:16;;;;;;;2.53;1.60;;;;;;;7.61;100.00;96298.47;5056280;28;20239;-62
2022/11/24 02:29:43;;;;;;;2.80;1.53;;;;;;;7.59;100.00;96300.41;5055808;28;20229;-62
2022/11/24 02:32:10;;;;;;;2.83;1.70;;;;;;;7.56;100.00;96298.03;5056118;28;20696;-62
2022/11/24 02:34:39;;;;;;;2.87;1.70;;;;;;;7.55;100.00;96299.00;5055948;28;20318;-62
2022/11/24 02:37:06;;;;;;;3.13;1.73;;;;;;;7.56;100.00;96300.66;5055845;28;20294;-62
2022/11/24 02:39:33;;;;;;;4.23;1.73;;;;;;;7.52;100.00;96307.16;5055043;28;20329;-63
2022/11/24 02:42:01;;;;;;;3.53;1.87;;;;;;;7.54;100.00;96297.34;5061013;28;20210;-62
2022/11/24 02:44:33;;;;;;;3.00;1.37;;;;;;;7.63;100.00;96312.31;5055683;28;20207;-62
2022/11/24 02:47:04;;;;;;;4.57;1.67;;;;;;;7.57;100.00;96301.50;5055172;28;20217;-62
2022/11/24 02:49:32;;;;;;;4.87;2.00;;;;;;;7.50;100.00;96302.03;5055026;28;20607;-62
2022/11/24 02:52:00;;;;;;;3.00;2.00;;;;;;;7.48;100.00;96308.38;5056022;28;20203;-62
2022/11/24 02:54:30;;;;;;;4.10;1.80;;;;;;;7.46;100.00;96305.06;5058600;28;20236;-62
2022/11/24 02:56:59;;;;;;;3.87;1.63;;;;;;;7.52;100.00;96304.53;5054834;28;20655;-63
2022/11/24 02:59:26;;;;;;;2.77;1.17;;;;;;;7.55;100.00;96308.69;5055223;28;20317;-62
2022/11/24 03:01:54;;;;;;;2.47;1.50;;;;;;;7.57;100.00;96307.59;5055613;28;20281;-62
2022/11/24 03:04:21;;;;;;;5.13;1.40;;;;;;;7.58;100.00;96304.00;5055727;28;20214;-62
2022/11/24 03:06:47;;;;;;;3.77;1.70;;;;;;;7.64;100.00;96319.28;5055257;28;20213;-63
2022/11/24 03:09:14;;;;;;;2.43;1.27;;;;;;;7.63;100.00;96314.97;5054735;28;20294;-63
2022/11/24 03:11:41;;;;;;;2.97;1.40;;;;;;;7.64;100.00;96324.53;5054368;28;20211;-64
2022/11/24 03:14:10;;;;;;;2.67;1.00;;;;;;;7.65;100.00;96317.47;5054891;28;20238;-63
2022/11/24 03:16:38;;;;;;;4.53;1.60;;;;;;;7.63;100.00;96317.59;5065970;28;20298;-62
2022/11/24 03:19:08;;;;;;;1.63;1.13;;;;;;;7.62;100.00;96318.56;5056507;28;20723;-63
2022/11/24 03:21:36;;;;;;;3.63;1.13;;;;;;;7.58;100.00;96324.22;5058474;28;20356;-62
2022/11/24 03:24:03;;;;;;;4.07;1.40;;;;;;;7.58;100.00;96314.50;5058472;28;20208;-62
2022/11/24 03:26:31;;;;;;;1.40;1.00;;;;;;;7.62;100.00;96310.66;5057633;28;20222;-63
2022/11/24 03:28:58;;;;;;;3.40;1.10;;;;;;;7.59;100.00;96310.09;5063824;28;20302;-62
2022/11/24 03:31:25;;;;;;;3.53;1.27;;;;;;;7.56;100.00;96316.47;5089059;28;20203;-63
2022/11/24 03:33:53;;;;;;;3.10;1.20;;;;;;;7.51;100.00;96311.59;5077317;28;20308;-63
2022/11/24 03:36:23;;;;;;;1.43;0.93;;;;;;;7.51;100.00;96313.38;5074603;28;20231;-63
2022/11/24 03:38:50;;;;;;;2.40;1.00;;;;;;;7.53;100.00;96300.94;5059548;28;20310;-62
2022/11/24 03:41:18;;;;;;;2.57;1.37;;;;;;;7.51;100.00;96311.59;5064145;28;20202;-62
2022/11/24 03:43:45;;;;;;;3.00;1.27;;;;;;;7.42;100.00;96320.28;5066139;28;20207;-62
2022/11/24 03:46:12;;;;;;;3.73;0.97;;;;;;;7.34;100.00;96316.63;5064602;28;20211;-62
2022/11/24 03:48:39;;;;;;;4.00;1.40;;;;;;;7.38;100.00;96318.03;5057610;28;20325;-63
2022/11/24 03:51:06;;;;;;;1.30;1.20;;;;;;;7.40;100.00;96316.94;5057556;28;20207;-63
2022/11/24 03:53:34;;;;;;;1.60;1.40;;;;;;;7.46;100.00;96315.59;5058319;28;20581;-63
2022/11/24 03:56:02;;;;;;;3.80;1.60;;;;;;;7.47;100.00;96307.53;5057293;28;20648;-63
2022/11/24 03:58:29;;;;;;;3.77;1.43;;;;;;;7.44;100.00;96306.97;5059234;28;20230;-63
2022/11/24 04:00:56;;;;;;;3.43;1.17;;;;;;;7.39;100.00;96317.06;5058194;28;20207;-63
2022/11/24 04:03:24;;;;;;;4.63;1.43;;;;;;;7.30;100.00;96316.06;5057283;28;20211;-63
2022/11/24 04:05:51;;;;;;;3.03;1.23;;;;;;;7.35;100.00;96318.31;5057612;28;20284;-63
2022/11/24 04:08:18;;;;;;;4.30;1.87;;;;;;;7.40;100.00;96326.66;5057881;28;20249;-62
2022/11/24 04:10:50;;;;;;;3.80;1.20;;;;;;;7.41;100.00;96323.03;5056769;28;20378;-62
2022/11/24 04:13:19;;;;;;;4.50;1.23;;;;;;;7.38;100.00;96324.13;5057802;28;20207;-63
2022/11/24 04:15:46;;;;;;;2.67;1.10;;;;;;;7.40;100.00;96321.38;5057352;28;20221;-62
2022/11/24 04:18:13;;;;;;;2.50;1.20;;;;;;;7.36;100.00;96323.44;5057460;28;20203;-63
2022/11/24 04:20:40;;;;;;;4.20;1.40;;;;;;;7.46;100.00;96326.13;5057185;28;20207;-63
2022/11/24 04:23:07;;;;;;;2.50;1.07;;;;;;;7.40;100.00;96332.72;5057139;28;20211;-62
2022/11/24 04:25:34;;;;;;;4.47;1.57;;;;;;;7.35;100.00;96336.72;5056810;28;20241;-63
2022/11/24 04:28:02;;;;;;;1.87;0.80;;;;;;;7.33;100.00;96333.41;5057489;28;20211;-63
2022/11/24 04:30:31;;;;;;;3.00;0.97;;;;;;;7.41;100.00;96341.44;5057413;28;20210;-63
2022/11/24 04:32:59;;;;;;;5.37;1.47;;;;;;;7.45;100.00;96350.75;5060774;28;20198;-63
2022/11/24 04:35:26;;;;;;;4.20;1.50;;;;;;;7.55;100.00;96349.00;5062859;28;20234;-64
2022/11/24 04:37:53;;;;;;;2.90;1.10;;;;;;;7.60;100.00;96356.50;5063687;28;20211;-63
2022/11/24 04:40:20;;;;;;;3.07;1.27;;;;;;;7.56;100.00;96363.81;5056683;28;20238;-62
2022/11/24 04:42:52;;;;;;;5.37;1.67;;;;;;;7.49;100.00;96360.88;5061604;28;20217;-63
2022/11/24 04:45:20;;;;;;;2.27;1.03;;;;;;;7.50;100.00;96361.72;5063132;28;20272;-63
2022/11/24 04:47:47;;;;;;;2.70;1.13;;;;;;;7.45;100.00;96364.72;5062056;28;20218;-63
2022/11/24 04:50:14;;;;;;;3.97;1.17;;;;;;;7.42;100.00;96374.69;5055995;28;20203;-63
2022/11/24 04:52:40;;;;;;;4.93;1.20;;;;;;;7.36;100.00;96377.84;5054604;28;20667;-63
2022/11/24 04:55:08;;;;;;;2.50;1.03;;;;;;;7.33;100.00;96378.91;5055656;28;20295;-63
2022/11/24 04:57:36;;;;;;;2.53;1.23;;;;;;;7.29;100.00;96382.78;5055921;28;20639;-63
2022/11/24 05:00:03;;;;;;;3.57;1.67;;;;;;;7.29;100.00;96376.69;5056433;28;20238;-63
2022/11/24 05:02:32;;;;;;;2.60;1.20;;;;;;;7.21;100.00;96387.84;5060991;28;20289;-62
2022/11/24 05:04:58;;;;;;;3.23;1.00;;;;;;;7.17;100.00;96388.22;5056293;28;20237;-63
2022/11/24 05:07:28;;;;;;;3.93;1.30;;;;;;;7.27;100.00;96391.75;5073607;28;20210;-63
2022/11/24 05:12:38;;;;;;;5.27;1.43;;;;;;;7.31;100.00;96390.53;5059614;28;20287;-62
2022/11/24 05:15:09;;;;;;;2.20;1.00;;;;;;;7.35;100.00;96391.94;5062994;28;20659;-62
2022/11/24 05:17:38;;;;;;;3.27;1.10;;;;;;;7.31;100.00;96393.16;5055695;28;20211;-63
2022/11/24 05:20:06;;;;;;;2.67;1.07;;;;;;;7.30;100.00;96386.22;5055993;28;20376;-62
2022/11/24 05:22:38;;;;;;;4.40;1.13;;;;;;;7.29;100.00;96385.44;5059569;28;20534;-63
2022/11/24 05:25:04;;;;;;;2.40;0.80;;;;;;;7.29;100.00;96384.59;5061936;28;20203;-62
2022/11/24 05:27:31;;;;;;;2.83;1.03;;;;;;;7.33;100.00;96386.81;5055948;28;20642;-63
2022/11/24 05:29:58;;;;;;;3.70;1.30;;;;;;;7.34;100.00;96380.59;5062322;28;20644;-62
2022/11/24 05:32:25;;;;;;;3.23;1.37;;;;;;;7.36;100.00;96370.78;5055947;28;20357;-62
2022/11/24 05:34:56;;;;;;;3.33;1.40;;;;;;;7.39;100.00;96374.94;5056824;28;20239;-61
2022/11/24 05:37:24;;;;;;;3.60;1.10;;;;;;;7.43;100.00;96384.25;5056353;28;20636;-63
2022/11/24 05:39:53;;;;;;;3.07;1.20;;;;;;;7.46;100.00;96376.94;5055161;28;20323;-63
2022/11/24 05:45:04;;;;;;;4.33;1.63;;;;;;;7.44;100.00;96375.38;5057672;28;20217;-63
2022/11/24 05:47:32;;;;;;;2.40;0.87;;;;;;;7.48;100.00;96382.88;5055599;28;20217;-63
2022/11/24 05:50:00;;;;;;;3.10;1.27;;;;;;;7.50;100.00;96386.25;5055041;28;20199;-62
2022/11/24 05:52:27;;;;;;;4.57;1.50;;;;;;;7.50;100.00;96382.78;5055775;28;20297;-63
2022/11/24 05:54:53;;;;;;;4.43;1.40;;;;;;;7.53;100.00;96385.13;5055432;28;20207;-62
2022/11/24 05:57:20;;;;;;;3.03;1.23;;;;;;;7.60;100.00;96381.00;5084826;28;20190;-62
2022/11/24 05:59:48;;;;;;;2.33;1.27;;;;;;;7.65;100.00;96370.91;5081525;28;20213;-63
2022/11/24 06:02:15;;;;;;;4.17;1.53;;;;;;;7.60;100.00;96365.22;5095498;28;20190;-63
2022/11/24 06:04:43;;;;;;;2.70;1.30;;;;;;;7.72;100.00;96366.78;5059937;28;20207;-62
2022/11/24 06:07:12;;;;;;;2.77;1.00;;;;;;;7.75;100.00;96366.56;5059908;28;20286;-63
2022/11/24 06:09:39;;;;;;;6.20;1.23;;;;;;;7.77;100.00;96369.88;5056284;28;20214;-64
2022/11/24 06:12:07;;;;;;;4.03;1.40;;;;;;;7.80;100.00;96374.88;5055741;28;20207;-63
2022/11/24 06:14:34;;;;;;;2.30;1.13;;;;;;;7.83;100.00;96369.31;5061491;28;20217;-62
2022/11/24 06:17:02;;;;;;;2.00;1.13;;;;;;;7.85;100.00;96366.56;5064404;28;20194;-63
2022/11/24 06:19:28;;;;;;;2.60;1.30;;;;;;;7.87;100.00;96377.78;5062734;28;20229;-64
2022/11/24 06:21:56;;;;;;;3.10;1.40;;;;;;;7.85;100.00;96377.09;5055577;28;20314;-63
2022/11/24 06:24:26;;;;;;;7.07;1.17;;;;;;;7.86;100.00;96374.34;5056186;28;20210;-63
2022/11/24 06:26:53;;;;;;;5.00;1.60;;;;;;;7.83;100.00;96387.75;5055102;28;20207;-63
2022/11/24 06:29:20;;;;;;;4.93;1.73;;;;;;;7.84;100.00;96383.31;5057304;28;20199;-65
2022/11/24 06:31:47;;;;;;;2.00;1.17;;;;;;;7.86;100.00;96381.41;5057430;28;20269;-66
2022/11/24 06:34:14;;;;;;;1.80;1.27;;;;;;;7.87;100.00;96378.63;5056372;28;20244;-65
2022/11/24 06:36:40;;;;;;;4.67;1.70;;;;;;;7.91;100.00;96385.31;5058745;28;20214;-64
2022/11/24 06:39:07;;;;;;;5.03;1.20;;;;;;;7.94;100.00;96395.56;5071705;28;20218;-64
2022/11/24 06:41:37;;;;;;;4.73;1.50;;;;;;;7.93;100.00;96388.66;5065682;28;20255;-64
2022/11/24 06:44:04;;;;;;;5.87;1.30;;;;;;;8.06;100.00;96398.09;5069647;28;20203;-65
2022/11/24 06:46:31;;;;;;;3.60;1.63;;;;;;;8.08;100.00;96401.44;5063427;28;20628;-67
2022/11/24 06:48:58;;;;;;;3.40;1.60;;;;;;;8.16;100.00;96393.69;5076505;28;20194;-63
2022/11/24 06:51:25;;;;;;;4.17;2.70;;;;;;;8.12;100.00;96381.75;5064374;28;20639;-62
2022/11/24 06:53:52;;;;;;;3.20;1.73;;;;;;;8.10;100.00;96383.69;5057519;28;20260;-62
2022/11/24 06:56:22;;;;;;;4.63;1.73;;;;;;;8.09;100.00;96387.28;5057820;28;20211;-58
2022/11/24 06:58:51;;;;;;;3.03;1.30;;;;;;;8.07;100.00;96389.25;5080541;28;20553;-62
2022/11/24 07:01:19;;;;;;;3.17;1.30;;;;;;;8.05;100.00;96376.19;5072468;28;20242;-63
2022/11/24 07:03:48;;;;;;;1.90;1.17;;;;;;;8.06;100.00;96384.94;5063123;28;20203;-62
2022/11/24 07:06:16;;;;;;;3.73;1.47;;;;;;;8.08;100.00;96390.91;5065368;28;20211;-62
2022/11/24 07:08:42;;;;;;;4.63;1.80;;;;;;;8.07;100.00;96389.25;5077666;28;20213;-63
2022/11/24 07:11:12;;;;;;;5.20;1.50;;;;;;;8.06;100.00;96385.78;5059206;28;20200;-62
2022/11/24 07:13:38;;;;;;;2.33;1.27;;;;;;;8.06;100.00;96379.66;5058902;28;20218;-62
2022/11/24 07:16:18;;;;;;;5.27;1.70;;;;;;;8.07;100.00;96395.34;5058871;28;20218;-62
2022/11/24 07:18:45;;;;;;;6.07;2.00;;;;;;;8.12;100.00;96400.19;5061097;28;20221;-62
2022/11/24 07:21:12;;;;;;;5.23;1.53;;;;;;;8.08;100.00;96388.28;5078493;28;20229;-62
2022/11/24 07:23:39;;;;;;;4.10;1.70;;;;;;;8.06;100.00;96390.19;5075753;28;20218;-61
2022/11/24 07:26:06;;;;;;;5.60;1.40;;;;;;;8.02;100.00;96389.63;5067862;28;20221;-62
2022/11/24 07:28:33;;;;;;;4.63;1.53;;;;;;;8.00;100.00;96389.78;5079051;28;20252;-62
2022/11/24 07:31:05;;;;;;;5.43;1.53;;;;;;;7.99;100.00;96395.19;5074121;28;20198;-62
2022/11/24 07:33:33;;;;;;;2.73;1.63;;;;;;;7.99;100.00;96397.81;5062217;28;20191;-64
2022/11/24 07:36:00;;;;;;;3.93;1.53;;;;;;;7.98;100.00;96399.59;5060005;28;20239;-62
2022/11/24 07:38:27;;;;;;;6.27;1.70;;;;;;;7.94;100.00;96400.81;5062223;28;20667;-62
2022/11/24 07:40:53;;;;;;;3.13;1.67;;;;;;;7.97;100.00;96400.56;5063698;28;20294;-62
2022/11/24 07:43:22;;;;;;;5.10;2.10;;;;;;;7.96;99.91;96392.81;5061969;28;20225;-62
2022/11/24 07:45:51;;;;;;;4.47;1.73;;;;;;;7.95;100.00;96399.88;5062897;28;20210;-62
2022/11/24 07:48:19;;;;;;;5.83;1.70;;;;;;;7.98;100.00;96399.59;5079703;28;20198;-62
2022/11/24 07:50:47;;;;;;;5.60;1.40;;;;;;;8.02;100.00;96406.28;5066891;28;20215;-62
2022/11/24 07:53:13;;;;;;;3.10;1.40;;;;;;;8.11;100.00;96412.56;5059843;28;20211;-62
2022/11/24 07:55:40;;;;;;;4.17;1.30;;;;;;;8.21;100.00;96417.84;5059316;28;20211;-62
2022/11/24 07:58:07;;;;;;;3.43;1.67;;;;;;;8.32;100.00;96428.31;5059134;28;20203;-61
2022/11/24 08:00:34;;;;;;;5.60;1.67;;;;;;;8.44;100.00;96429.84;5059979;28;20233;-62
2022/11/24 08:03:01;;;;;;;5.40;2.10;;;;;;;8.57;100.00;96441.00;5059914;28;20223;-61
2022/11/24 08:05:28;;;;;;;4.67;1.60;;;;;;;8.61;99.33;96436.28;5058869;28;20217;-62
2022/11/24 08:07:55;;;;;;;4.97;2.10;;;;;;;8.64;99.34;96447.41;5066164;28;20214;-62
2022/11/24 08:10:22;;;;;;;6.67;2.10;;;;;;;8.71;97.84;96450.31;5081411;28;20198;-63
2022/11/24 08:12:49;;;;;;;5.47;1.60;;;;;;;8.67;99.27;96449.75;5097924;28;20195;-61
2022/11/24 08:15:15;;;;;;;4.00;1.73;;;;;;;8.68;98.66;96469.84;5076161;28;20217;-63
2022/11/24 08:17:42;;;;;;;3.90;1.50;;;;;;;8.67;99.87;96457.66;5067349;28;20221;-62
2022/11/24 08:20:10;;;;;;;3.93;1.50;;;;;;;8.65;100.00;96475.41;5069762;28;20309;-61
2022/11/24 08:22:36;;;;;;;7.07;2.30;;;;;;;8.69;100.00;96487.34;5088348;28;20255;-62
2022/11/24 08:25:05;;;;;;;4.03;1.80;;;;;;;8.74;100.00;96494.84;5090468;28;20207;-62
2022/11/24 08:27:32;;;;;;;3.93;1.60;;;;;;;8.58;100.00;96490.09;5079747;28;20183;-62
2022/11/24 08:29:58;;;;;;;5.23;1.37;;;;;;;8.58;100.00;96486.59;5078864;28;20258;-61
2022/11/24 08:32:25;;;;;;;5.13;2.20;;;;;;;8.52;100.00;96492.44;5076788;28;20217;-62
2022/11/24 08:34:51;;;;;;;4.97;2.00;;;;;;;8.47;100.00;96498.09;5061207;28;20695;-61
2022/11/24 08:37:18;;;;;;;4.53;2.10;;;;;;;8.38;100.00;96501.53;5057003;28;20218;-62
2022/11/24 08:39:45;;;;;;;4.83;1.80;;;;;;;8.31;100.00;96495.13;5056696;28;20203;-61
2022/11/24 08:42:13;;;;;;;3.80;1.70;;;;;;;8.28;100.00;96508.53;5062830;28;20202;-60
2022/11/24 08:44:40;;;;;;;6.37;1.93;;;;;;;8.24;100.00;96512.41;5077733;28;20202;-61
2022/11/24 08:47:07;;;;;;;4.93;1.93;;;;;;;8.18;100.00;96497.13;5078816;28;20213;-62
2022/11/24 08:49:33;;;;;;;5.97;2.07;;;;;;;8.10;100.00;96503.06;5083194;28;20289;-61
2022/11/24 08:52:00;;;;;;;4.70;2.00;;;;;;;8.15;100.00;96511.38;5064013;28;20293;-61
2022/11/24 08:54:27;;;;;;;9.07;2.70;;;;;;;8.15;100.00;96515.84;5056723;28;20340;-62
2022/11/24 08:56:54;;;;;;;3.43;1.73;;;;;;;8.21;100.00;96518.78;5055991;28;20215;-62
2022/11/24 08:59:22;;;;;;;3.70;1.90;;;;;;;8.21;100.00;96518.78;5056621;28;20214;-62
2022/11/24 09:01:48;;;;;;;6.20;1.80;;;;;;;8.23;100.00;96516.00;5056214;28;20260;-62
2022/11/24 09:04:15;;;;;;;5.20;1.80;;;;;;;8.27;100.00;96528.78;5056334;28;20203;-62
2022/11/24 09:06:43;;;;;;;6.03;1.90;;;;;;;8.21;100.00;96546.91;5056454;28;20290;-61
2022/11/24 09:09:10;;;;;;;7.90;2.00;;;;;;;8.16;100.00;96547.28;5056487;28;20214;-62
2022/11/24 09:11:37;;;;;;;6.47;2.00;;;;;;;8.15;100.00;96553.53;5067230;28;20331;-62
2022/11/24 09:14:04;;;;;;;8.97;2.30;;;;;;;8.14;100.00;96562.41;5063077;28;20209;-62
2022/11/24 09:16:33;;;;;;;5.30;2.00;;;;;;;8.17;100.00;96569.22;5075732;28;20202;-62
2022/11/24 09:19:00;;;;;;;5.43;1.87;;;;;;;8.16;100.00;96570.16;5074888;28;20661;-62
2022/11/24 09:21:28;;;;;;;5.13;2.20;;;;;;;8.20;100.00;96569.78;5075558;28;20540;-62
2022/11/24 09:23:55;;;;;;;7.40;1.83;;;;;;;8.19;100.00;96568.09;5075401;28;20210;-62
2022/11/24 09:26:23;;;;;;;4.67;1.90;;;;;;;8.17;100.00;96575.31;5075232;28;20203;-62
2022/11/24 09:28:53;;;;;;;2.97;1.37;;;;;;;8.23;100.00;96568.69;5062415;28;20206;-61
2022/11/24 09:31:21;;;;;;;3.70;1.33;;;;;;;8.29;100.00;96566.38;5062636;28;20227;-62
2022/11/24 09:33:50;;;;;;;4.90;1.80;;;;;;;8.35;100.00;96567.69;5055398;28;20225;-61
2022/11/24 09:36:16;;;;;;;4.27;1.27;;;;;;;8.41;100.00;96575.03;5055056;28;20286;-62
2022/11/24 09:38:43;;;;;;;4.43;1.77;;;;;;;8.45;100.00;96589.63;5074476;28;20239;-62
2022/11/24 09:41:27;;;;;;;3.77;1.80;;;;;;;8.39;100.00;96577.84;5065552;28;20226;-62
2022/11/24 09:44:01;;;;;;;3.70;2.00;;;;;;;8.38;100.00;96572.69;5055720;28;20203;-62
2022/11/24 09:46:30;;;;;;;4.93;1.17;;;;;;;8.41;100.00;96582.94;5055903;28;20207;-63
2022/11/24 09:48:58;;;;;;;3.47;1.53;;;;;;;8.45;100.00;96584.38;5055382;28;20632;-62
2022/11/24 09:51:28;;;;;;;3.17;1.40;;;;;;;8.45;100.00;96584.38;5055418;28;20215;-62
2022/11/24 09:53:57;;;;;;;2.40;1.30;;;;;;;8.49;100.00;96586.63;5056071;28;20221;-62
2022/11/24 09:56:25;;;;;;;7.73;2.03;;;;;;;8.54;100.00;96586.19;5055506;28;20210;-62
2022/11/24 09:58:53;;;;;;;7.03;2.67;;;;;;;8.52;100.00;96582.88;5055945;28;20292;-62
2022/11/24 10:01:22;;;;;;;5.33;1.63;;;;;;;8.59;100.00;96594.56;5055054;28;20229;-62
2022/11/24 10:03:51;;;;;;;4.73;2.00;;;;;;;8.52;100.00;96601.31;5054995;28;20206;-62
2022/11/24 10:06:23;;;;;;;4.07;2.10;;;;;;;8.62;100.00;96596.91;5054787;28;20206;-61
2022/11/24 10:09:17;;;;;;;3.77;2.00;;;;;;;8.66;100.00;96606.25;5055192;28;20207;-62
2022/11/24 10:11:50;;;;;;;5.23;2.23;;;;;;;8.65;100.00;96604.56;5054361;28;20191;-62
2022/11/24 10:14:50;;;;;;;5.30;1.80;;;;;;;8.67;100.00;96605.28;5054800;28;20214;-62
2022/11/24 10:17:24;;;;;;;5.80;1.93;;;;;;;8.77;100.00;96603.50;5019660;28;20207;-62
2022/11/24 10:19:55;;;;;;;6.10;1.90;;;;;;;8.78;100.00;96607.00;5058003;28;20203;-62
2022/11/24 10:22:35;;;;;;;5.37;1.83;;;;;;;8.92;100.00;96615.38;5075086;28;20214;-62
2022/11/24 10:25:12;;;;;;;6.43;2.00;;;;;;;8.94;100.00;96608.16;5074469;28;20674;-63
2022/11/24 10:27:41;;;;;;;4.33;1.43;;;;;;;8.97;100.00;96609.69;5077164;28;20646;-62
2022/11/24 10:30:16;;;;;;;5.87;1.77;;;;;;;9.03;100.00;96610.97;5066041;28;20213;-62
2022/11/24 10:32:47;;;;;;;4.37;1.90;;;;;;;9.13;100.00;96611.81;5072226;28;20202;-62
2022/11/24 10:35:18;;;;;;;7.80;2.03;;;;;;;9.21;100.00;96609.34;5075207;28;20247;-62
2022/11/24 10:37:54;;;;;;;5.20;2.07;;;;;;;9.28;100.00;96606.00;5076063;28;20202;-63
2022/11/24 10:40:26;;;;;;;5.23;2.53;;;;;;;9.30;100.00;96598.81;5084840;28;20208;-62
2022/11/24 10:42:52;;;;;;;6.40;2.40;;;;;;;9.43;97.50;96599.38;5063471;28;20199;-62
2022/11/24 10:45:22;;;;;;;4.40;1.77;;;;;;;9.42;99.02;96588.97;5059819;28;20264;-62
2022/11/24 10:47:49;;;;;;;6.07;2.20;;;;;;;9.43;99.84;96595.91;5060330;28;20627;-62
2022/11/24 10:50:21;;;;;;;8.27;2.03;;;;;;;9.47;97.70;96605.22;5070850;28;20646;-63
2022/11/24 10:52:55;;;;;;;4.20;1.70;;;;;;;9.49;98.86;96598.00;5059074;28;20206;-62
2022/11/24 10:55:22;;;;;;;6.57;2.60;;;;;;;9.56;96.79;96603.56;5070795;28;20202;-62
2022/11/24 10:57:48;;;;;;;5.70;2.13;;;;;;;9.60;98.29;96592.56;5081088;28;20203;-62
2022/11/24 11:00:34;;;;;;;6.03;2.07;;;;;;;9.67;97.15;96600.81;5073578;28;20222;-62
2022/11/24 11:03:12;;;;;;;6.13;2.20;;;;;;;9.74;97.30;96597.44;5071805;28;20234;-62
2022/11/24 11:05:41;;;;;;;4.53;1.93;;;;;;;9.81;95.20;96603.03;5059028;28;20211;-61
2022/11/24 11:08:27;;;;;;;3.70;1.77;;;;;;;9.81;94.56;96603.03;5058388;28;20272;-62
2022/11/24 11:11:13;;;;;;;5.17;2.30;;;;;;;9.84;96.30;96603.59;5064939;28;20217;-62
2022/11/24 11:13:50;;;;;;;8.00;2.57;;;;;;;9.91;97.05;96602.06;5061926;28;20233;-62
2022/11/24 11:16:24;;;;;;;5.93;1.80;;;;;;;9.96;95.84;96602.44;5078539;28;20206;-62
2022/11/24 11:18:51;;;;;;;7.27;2.03;;;;;;;9.94;94.78;96607.06;5078034;28;20237;-62
2022/11/24 11:21:28;;;;;;;6.67;2.07;;;;;;;9.96;96.61;96606.91;5068875;28;20245;-62
2022/11/24 11:23:56;;;;;;;5.90;2.33;;;;;;;9.90;97.33;96610.94;5076040;28;20190;-62
2022/11/24 11:26:32;;;;;;;5.33;1.67;;;;;;;9.95;97.78;96621.91;5078133;28;20215;-62
2022/11/24 11:29:02;;;;;;;5.17;2.17;;;;;;;9.85;99.57;96620.25;5078340;28;20207;-62
2022/11/24 11:31:30;;;;;;;6.30;2.23;;;;;;;9.79;100.00;96619.00;5071045;28;20214;-62
2022/11/24 11:34:02;;;;;;;6.73;2.50;;;;;;;9.83;100.00;96619.56;5077946;28;20206;-62
2022/11/24 11:36:30;;;;;;;6.33;1.60;;;;;;;9.79;100.00;96621.63;5065073;28;20211;-61
2022/11/24 11:38:58;;;;;;;5.17;2.10;;;;;;;9.88;100.00;96620.00;5078485;28;20209;-62
2022/11/24 11:41:29;;;;;;;5.23;1.80;;;;;;;9.95;100.00;96621.91;5069689;28;20573;-62
2022/11/24 11:44:02;;;;;;;7.17;2.33;;;;;;;10.02;99.71;96623.00;5058560;28;20195;-62
2022/11/24 11:46:31;;;;;;;8.23;2.50;;;;;;;10.09;100.00;96619.84;5061460;28;20217;-62